KRIC/RIC METAR and TAF weather

Enter ICAO airport designator
Station Type Date Time Source
KRIC METAR 2019/12/06 08:54 UTC NOAA

KRIC 060854Z 10003KT 10SM CLR M01/M03 A3018 RMK AO2 SLP226 T10111033 58005


Station Type Date Time Source
KRIC Decoded METAR 2019/12/06 08:54 UTC NOAA

RICHMOND INTERNATIONAL AIRPORT, VA, United States (KRIC) 37-31N 077-19W 50M
Dec 06, 2019 - 03:54 AM EST / 2019.12.06 0854 UTC
Wind: from the E (100 degrees) at 3 MPH (3 KT):0
Visibility: 10 mile(s):0
Sky conditions: clear
Temperature: 30.0 F (-1.1 C)
Dew Point: 26.1 F (-3.3 C)
Relative Humidity: 84%
Pressure (altimeter): 30.18 in. Hg (1022 hPa)
Pressure tendency: 0.01 inches (0.5 hPa) lower than three hours ago
ob: KRIC 060854Z 10003KT 10SM CLR M01/M03 A3018 RMK AO2 SLP226 T10111033 58005
cycle: 9

Station Type Date Time Source
KRIC TAF 2019/12/06 06:22 UTC NOAA

TAF KRIC 060520Z 0606/0706 VRB03KT P6SM BKN250
FM061500 21008KT P6SM SCT100 BKN250
FM061800 24011KT P6SM OVC080
FM070400 28006KT P6SM SCT050

Example: see airport list